Terminal Aerodrome Forecast
Issued by NWS

Home | Current Version | Previous Version | Text Only | Print | Product List | Glossary On
Versions: 1 2 3 4 5 6 7 8 9 10 11 12 13 14 15 16 17 18 19 20 21 22 23 24 25 26 27 28 29 30
000
FTUS44 KLIX 041739
TAFHDC
TAF
KHDC 041739Z 0418/0518 VRB04KT P6SM BKN005 OVC040
     FM042100 33005KT P6SM OVC015
      TEMPO 0421/0424 2SM SHRA OVC007
     FM050000 35005KT P6SM OVC020
      TEMPO 0500/0503 2SM SHRA OVC007
     FM050900 05006KT 5SM SHRA BR OVC010
      TEMPO 0514/0518 2SM TSRA OVC006CB=

USA.gov is the U.S. government's official web portal to all federal, state and local government web resources and services.